Flight Track Log - Related Links

Times and Time Zones

All times are in EDT time to prevent confusion due to time zone crossing. See the SWA2236 flight status page for this flight to view local times or setup timezone preferences in your user account.


Time Position Orientation Groundspeed Altitude Reporting Facility
EDT Latitude Longitude Course Direction KTS MPH feet Rate Location/Type
Tue 09:19:51 AM 35.0608 -106.5553 49° Northeast 193 222 7,100  Level Albuquerque Center
Tue 09:20:52 AM 35.0956 -106.6047 311° West 206 237 8,400 1,475 Climbing Albuquerque Center
Tue 09:21:53 AM 35.0944 -106.6919 269° West 242 278 10,100 2,066 Climbing Albuquerque Center
Tue 09:22:54 AM 35.0933 -106.7942 269° West 283 326 12,600 2,557 Climbing Albuquerque Center
Tue 09:23:55 AM 35.1003 -106.9214 274° West 320 368 15,300 2,213 Climbing Albuquerque Center
Tue 09:24:56 AM 35.1169 -107.0439 279° West 358 412 17,100 1,918 Climbing Albuquerque Center
Tue 09:25:57 AM 35.1333 -107.1764 279° West 387 445 19,200 2,115 Climbing Albuquerque Center
Tue 09:26:58 AM 35.1486 -107.3183 278° West 418 481 21,400 2,164 Climbing Albuquerque Center
Tue 09:27:59 AM 35.1647 -107.4600 278° West 423 487 23,600 1,869 Climbing Albuquerque Center
Tue 09:29:00 AM 35.1814 -107.6133 278° West 431 496 25,200 1,623 Climbing Albuquerque Center
Tue 09:30:01 AM 35.2022 -107.7806 279° West 442 509 26,900 1,574 Climbing Albuquerque Center
Tue 09:31:02 AM 35.2167 -107.9300 277° West 454 522 28,400 1,426 Climbing Albuquerque Center
Tue 09:32:03 AM 35.2331 -108.0778 278° West 456 525 29,800 1,672 Climbing Albuquerque Center
Tue 09:33:04 AM 35.2531 -108.2531 278° West 462 532 31,800 1,721 Climbing Albuquerque Center
Tue 09:34:05 AM 35.2686 -108.4028 277° West 462 532 33,300 1,475 Climbing Albuquerque Center
Tue 09:35:06 AM 35.2847 -108.5506 278° West 460 529 34,800 1,707 Climbing Albuquerque Center
Tue 09:36:08 AM 35.3036 -108.7225 278° West 455 524 36,800 1,610 Climbing Albuquerque Center
Tue 09:37:09 AM 35.3186 -108.8644 277° West 444 511 38,100 639 Climbing Albuquerque Center
Tue 09:38:10 AM 35.3325 -109.0061 277° West 438 504 38,100  Level Albuquerque Center
Tue 09:39:11 AM 35.3494 -109.1700 277° West 433 498 38,100  Level Albuquerque Center
Tue 09:40:12 AM 35.3642 -109.3108 277° West 433 498 38,100  Level Albuquerque Center
Tue 09:41:13 AM 35.3786 -109.4503 277° West 431 496 38,100  Level Albuquerque Center
Tue 09:42:15 AM 35.3931 -109.6153 276° West 433 498 38,100  Level Albuquerque Center
Tue 09:43:16 AM 35.4061 -109.7553 277° West 433 498 38,100  Level Albuquerque Center
Tue 09:44:17 AM 35.4203 -109.8936 277° West 430 495 38,100  Level Albuquerque Center
Tue 09:45:18 AM 35.4336 -110.0564 276° West 429 494 38,100  Level Albuquerque Center
Tue 09:46:20 AM 35.4456 -110.1953 276° West 428 493 38,100  Level Albuquerque Center
Tue 09:47:21 AM 35.4600 -110.3569 276° West 427 491 38,100  Level Albuquerque Center
Tue 09:48:22 AM 35.4733 -110.4969 277° West 429 494 38,100  Level Albuquerque Center
Tue 09:49:24 AM 35.4856 -110.6375 276° West 431 496 38,100  Level Albuquerque Center
Tue 09:50:25 AM 35.4986 -110.7978 276° West 427 491 38,100  Level Albuquerque Center
Tue 09:51:26 AM 35.5097 -110.9353 276° West 423 487 38,100  Level Albuquerque Center
Tue 09:52:28 AM 35.5250 -111.0972 277° West 426 490 38,100  Level Albuquerque Center
Tue 09:53:29 AM 35.5367 -111.2353 276° West 425 489 38,100  Level Albuquerque Center
Tue 09:54:31 AM 35.5483 -111.3736 276° West 425 489 38,100 -49 Level Albuquerque Center
Tue 09:55:32 AM 35.5606 -111.5228 276° West 433 498 38,000 -49 Descending Albuquerque Center
Tue 09:56:33 AM 35.5725 -111.6658 276° West 428 493 38,000  Level Albuquerque Center
Tue 09:57:35 AM 35.5828 -111.8089 275° West 425 489 38,000  Level Albuquerque Center
Tue 09:58:37 AM 35.6044 -111.9786 279° West 424 488 38,000  Level Albuquerque Center
Tue 09:59:38 AM 35.6261 -112.1208 281° West 425 489 38,000  Level Albuquerque Center
Tue 10:00:39 AM 35.6469 -112.2622 280° West 425 489 38,000  Level Albuquerque Center
Tue 10:01:41 AM 35.6686 -112.4019 281° West 423 487 38,000  Level Albuquerque Center
Tue 10:02:43 AM 35.6886 -112.5442 280° West 425 489 38,000  Level Albuquerque Center
Tue 10:03:44 AM 35.7086 -112.6853 280° West 426 490 38,000  Level Albuquerque Center
Tue 10:04:46 AM 35.7333 -112.8561 280° West 428 493 38,000  Level Albuquerque Center
Tue 10:05:47 AM 35.7536 -112.9992 280° West 430 495 38,000  Level Albuquerque Center
Tue 10:07:13 AM 35.7808 -113.2011 279° West 431 496 38,000  Level Los Angeles Center
Tue 10:08:15 AM 35.7997 -113.3450 279° West 430 495 38,000  Level Los Angeles Center
Tue 10:09:17 AM 35.8189 -113.4892 279° West 428 493 38,000  Level Los Angeles Center
Tue 10:10:19 AM 35.8411 -113.6575 279° West 425 489 38,000  Level Los Angeles Center
Tue 10:11:20 AM 35.8606 -113.8011 280° West 425 489 38,000  Level Los Angeles Center
Tue 10:12:22 AM 35.8792 -113.9456 279° West 426 490 38,000  Level Los Angeles Center
Tue 10:13:24 AM 35.8986 -114.0894 280° West 425 489 38,000  Level Los Angeles Center
Tue 10:14:25 AM 35.9167 -114.2331 279° West 423 487 38,000  Level Los Angeles Center
Tue 10:15:27 AM 35.9358 -114.3769 279° West 426 490 38,000  Level Los Angeles Center
Tue 10:16:29 AM 35.9583 -114.5486 279° West 422 486 38,000  Level Los Angeles Center
Tue 10:17:31 AM 35.9753 -114.6925 278° West 424 488 38,000  Level Los Angeles Center
Tue 10:18:33 AM 35.9939 -114.8394 279° West 427 491 38,000  Level Los Angeles Center
Tue 10:19:34 AM 36.0444 -114.9722 295° West 433 498 38,000  Level Los Angeles Center
Tue 10:20:36 AM 36.1017 -115.1047 298° West 437 503 38,000  Level Los Angeles Center
Tue 10:21:38 AM 36.1589 -115.2356 298° West 434 499 38,000  Level Los Angeles Center
Tue 10:22:40 AM 36.2167 -115.3669 299° West 433 498 38,000 48 Level Los Angeles Center
Tue 10:23:42 AM 36.2861 -115.5289 298° West 438 504 38,100 48 Climbing Los Angeles Center
Tue 10:24:44 AM 36.3378 -115.6514 298° West 448 516 38,100 -48 Level Los Angeles Center
Tue 10:25:46 AM 36.3964 -115.7883 298° West 451 519 38,000  Descending Los Angeles Center
Tue 10:26:48 AM 36.4658 -115.9531 298° West 448 516 38,100  Climbing Los Angeles Center
Tue 10:27:50 AM 36.5217 -116.0878 297° West 442 509 38,000  Descending Los Angeles Center
Tue 10:28:52 AM 36.5775 -116.2181 298° West 430 495 38,100 48 Climbing Los Angeles Center
Tue 10:29:54 AM 36.6322 -116.3519 297° West 432 497 38,100  Level Los Angeles Center
Tue 10:30:56 AM 36.6875 -116.4842 298° West 431 496 38,100  Level Los Angeles Center
Tue 10:31:57 AM 36.7436 -116.6156 298° West 429 494 38,100  Level Los Angeles Center
Tue 10:32:59 AM 36.8008 -116.7464 299° West 429 494 38,100  Level Los Angeles Center
Tue 10:34:01 AM 36.9244 -116.8569 324° Northwest 451 519 38,100  Level Los Angeles Center
Tue 10:35:03 AM 37.0306 -116.9411 328° Northwest 456 525 38,100  Level Los Angeles Center
Tue 10:36:05 AM 37.1344 -117.0300 326° Northwest 455 524 38,100 -48 Level Los Angeles Center
Tue 10:37:07 AM 37.2397 -117.1169 327° Northwest 452 520 38,000  Descending Los Angeles Center
Tue 10:38:09 AM 37.3447 -117.2061 326° Northwest 455 524 38,100  Climbing Los Angeles Center
Tue 10:39:11 AM 37.3961 -117.3394 296° West 432 497 38,000  Descending Los Angeles Center
Tue 10:40:13 AM 37.4194 -117.4839 282° West 422 486 38,100 49 Climbing Los Angeles Center
Tue 10:41:14 AM 37.4419 -117.6319 281° West 426 490 38,100 -50 Level Los Angeles Center
Tue 10:42:12 AM 37.4642 -117.7775 281° West 430 495 38,000 -50 Descending Oakland Center
Tue 10:43:13 AM 37.4861 -117.9256 281° West 429 494 38,000  Level Oakland Center
Tue 10:44:15 AM 37.5081 -118.0731 281° West 427 491 38,000 49 Level Oakland Center
Tue 10:45:16 AM 37.5306 -118.2200 281° West 426 490 38,100 49 Climbing Oakland Center
Tue 10:46:17 AM 37.5567 -118.3969 281° West 427 491 38,100  Level Oakland Center
Tue 10:47:18 AM 37.5775 -118.5450 280° West 427 491 38,100  Level Oakland Center
Tue 10:48:20 AM 37.5989 -118.6917 280° West 426 490 38,100 -49 Level Oakland Center
Tue 10:49:21 AM 37.6194 -118.8336 280° West 426 490 38,000 -443 Descending Oakland Center
Tue 10:50:22 AM 37.6394 -118.9792 280° West 423 487 37,200 -836 Descending Oakland Center
Tue 10:51:23 AM 37.6603 -119.1275 280° West 429 494 36,300 -585 Descending Oakland Center
Tue 10:52:25 AM 37.6803 -119.2742 280° West 424 488 36,000 -146 Descending Oakland Center
Tue 10:53:26 AM 37.7006 -119.4200 280° West 423 487 36,000  Level Oakland Center
Tue 10:54:27 AM 37.7211 -119.5661 280° West 422 486 36,000  Level Oakland Center
Tue 10:55:29 AM 37.7403 -119.7136 279° West 425 489 36,000  Level Oakland Center
Tue 10:56:30 AM 37.7653 -119.8889 280° West 423 487 36,000 -98 Level Oakland Center
Tue 10:57:31 AM 37.7842 -120.0356 279° West 422 486 35,800 -1,279 Descending Oakland Center
Tue 10:58:32 AM 37.8031 -120.1803 279° West 420 483 33,400 -2,244 Descending Oakland Center
Tue 10:59:34 AM 37.8211 -120.3258 279° West 419 482 31,200 -2,049 Descending Oakland Center
Tue 11:00:35 AM 37.8400 -120.4631 280° West 404 465 29,200 -2,213 Descending Oakland Center
Tue 11:01:36 AM 37.8569 -120.5994 279° West 395 455 26,700 -2,968 Descending Oakland Center
Tue 11:02:10 AM 37.8667 -120.6833 278° West 402 463 24,500 -3,383 Descending Northern Cal TRACON
Tue 11:03:10 AM 37.8500 -120.8333 262° West 407 468 21,400 -3,263 Descending Northern Cal TRACON
Tue 11:04:04 AM 37.8500 -120.9667 270° West 410 472 18,300 -3,211 Descending Northern Cal TRACON
Tue 11:05:04 AM 37.8333 -121.1000 261° West 409 471 15,300 -2,400 Descending Northern Cal TRACON
Tue 11:06:04 AM 37.8167 -121.2333 261° West 431 496 13,500 -1,316 Descending Northern Cal TRACON
Tue 11:06:58 AM 37.7667 -121.3167 233° Southwest 318 366 12,800 -737 Descending Northern Cal TRACON
Tue 11:07:58 AM 37.7000 -121.3500 202° Southwest 259 298 12,100 -550 Descending Northern Cal TRACON
Tue 11:08:58 AM 37.6333 -121.3667 191° South 240 276 11,700 -800 Descending Northern Cal TRACON
Tue 11:09:58 AM 37.5667 -121.3833 191° South 236 272 10,500 -1,158 Descending Northern Cal TRACON
Tue 11:10:52 AM 37.5667 -121.4500 270° West 250 288 9,500 -1,105 Descending Northern Cal TRACON
Tue 11:11:52 AM 37.5667 -121.5333 270° West 240 276 8,400 -1,050 Descending Northern Cal TRACON
Tue 11:12:52 AM 37.5667 -121.6167 270° West 233 268 7,400 -1,050 Descending Northern Cal TRACON
Tue 11:13:52 AM 37.5667 -121.6833 270° West 231 266 6,300 -694 Descending Northern Cal TRACON
Tue 11:14:53 AM 37.5667 -121.7667 270° West 226 260 6,000 -198 Descending Northern Cal TRACON
Tue 11:15:53 AM 37.5500 -121.8500 256° West 224 258 5,900 -650 Descending Northern Cal TRACON
Tue 11:16:53 AM 37.5500 -121.9333 270° West 225 259 4,700 -900 Descending Northern Cal TRACON
Tue 11:17:53 AM 37.5667 -122.0000 288° West 232 267 4,100 -700 Descending Northern Cal TRACON
Tue 11:18:53 AM 37.6000 -122.0667 302° West 227 261 3,300 -1,100 Descending Northern Cal TRACON
Tue 11:19:53 AM 37.6333 -122.1167 310° West 218 251 1,900 -1,211 Descending Northern Cal TRACON
Tue 11:20:47 AM 37.6667 -122.1667 310° West 166 191 1,000 -842 Descending Northern Cal TRACON
Tue 11:21:47 AM 37.7000 -122.2000 322° Northwest 137 158 300 -700 Descending Northern Cal TRACON

Login

Don't have an account? Register now (free) for customized features, flight alerts, and more!